createdAt,value
2023-05-16T00:02:14.218Z,97421.84
2023-05-16T00:05:21.980Z,97427.94
2023-05-16T00:08:37.683Z,97424.72
2023-05-16T00:16:29.726Z,97429.63
2023-05-16T00:19:36.464Z,97427.63
2023-05-16T00:22:44.917Z,97434.63
2023-05-16T00:25:54.573Z,97427.22
2023-05-16T00:29:00.394Z,97435.44
2023-05-16T00:32:15.905Z,97433.38
2023-05-16T00:35:24.054Z,97431.38
2023-05-16T00:38:31.021Z,97435.69
2023-05-16T00:41:40.345Z,97438.78
2023-05-16T00:44:46.991Z,97443.47
2023-05-16T00:47:55.263Z,97443.22
2023-05-16T00:51:02.313Z,97440.19
2023-05-16T00:54:09.862Z,97433.59
2023-05-16T00:57:19.517Z,97435.44
2023-05-16T01:00:26.109Z,97431.38
2023-05-16T01:03:33.575Z,97441.19
2023-05-16T01:06:39.988Z,97435.38
2023-05-16T01:09:46.812Z,97437.22
2023-05-16T01:13:14.623Z,97431.25
2023-05-16T01:16:34.562Z,97430.59
2023-05-16T01:20:07.207Z,97422.00
2023-05-16T01:23:37.062Z,97422.06
2023-05-16T01:26:47.230Z,97416.59
2023-05-16T01:30:23.938Z,97421.81
2023-05-16T01:33:31.300Z,97418.16
2023-05-16T01:36:51.749Z,97424.69
2023-05-16T01:40:15.666Z,97427.72
2023-05-16T01:43:42.117Z,97425.06
2023-05-16T01:46:52.296Z,97420.78
2023-05-16T01:50:11.534Z,97425.47
2023-05-16T01:53:31.233Z,97426.97
2023-05-16T01:56:40.961Z,97416.75
2023-05-16T01:59:52.240Z,97421.28
2023-05-16T02:02:58.111Z,97418.22
2023-05-16T02:06:08.117Z,97417.81
2023-05-16T02:09:14.170Z,97418.09
2023-05-16T02:12:24.843Z,97427.88
2023-05-16T02:15:35.160Z,97427.50
2023-05-16T02:18:42.881Z,97435.47
2023-05-16T02:21:50.642Z,97429.56
2023-05-16T02:24:57.694Z,97424.63
2023-05-16T02:28:07.208Z,97433.44
2023-05-16T02:31:16.661Z,97439.38
2023-05-16T02:34:22.531Z,97442.63
2023-05-16T02:37:32.294Z,97447.06
2023-05-16T02:40:38.222Z,97440.53
2023-05-16T02:43:46.904Z,97446.69
2023-05-16T02:46:55.829Z,97447.88
2023-05-16T02:50:02.547Z,97448.25
2023-05-16T02:53:08.473Z,97440.06
2023-05-16T02:56:15.238Z,97444.91
2023-05-16T02:59:27.083Z,97444.25
2023-05-16T03:02:36.441Z,97440.72
2023-05-16T03:05:42.623Z,97445.63
2023-05-16T03:08:49.627Z,97445.78
2023-05-16T03:11:56.772Z,97451.09
2023-05-16T03:15:10.552Z,97451.59
2023-05-16T03:18:39.414Z,97444.00
2023-05-16T03:21:46.521Z,97454.47
2023-05-16T03:24:57.664Z,97455.13
2023-05-16T03:28:04.658Z,97461.41
2023-05-16T03:31:11.308Z,97454.47
2023-05-16T03:34:21.197Z,97466.56
2023-05-16T03:37:28.359Z,97465.09
2023-05-16T03:40:35.736Z,97465.38
2023-05-16T03:43:41.669Z,97468.13
2023-05-16T03:47:02.181Z,97464.75
2023-05-16T03:50:13.217Z,97468.09
2023-05-16T03:53:21.758Z,97466.59
2023-05-16T03:56:29.420Z,97481.28
2023-05-16T03:59:36.495Z,97466.88
2023-05-16T04:02:44.449Z,97471.28
2023-05-16T04:05:56.493Z,97473.66
2023-05-16T04:09:02.513Z,97462.31
2023-05-16T04:12:10.416Z,97470.38
2023-05-16T04:15:16.430Z,97468.19
2023-05-16T04:18:23.119Z,97480.97
2023-05-16T04:21:32.177Z,97486.19
2023-05-16T04:24:38.948Z,97488.41
2023-05-16T04:27:44.852Z,97496.88
2023-05-16T04:30:52.081Z,97508.22
2023-05-16T04:33:58.330Z,97511.78
2023-05-16T04:37:14.517Z,97508.19
2023-05-16T04:40:20.652Z,97509.88
2023-05-16T04:43:30.677Z,97519.69
2023-05-16T04:46:39.582Z,97521.88
2023-05-16T04:49:46.333Z,97532.63
2023-05-16T04:52:56.383Z,97531.44
2023-05-16T04:56:06.165Z,97535.56
2023-05-16T04:59:17.371Z,97530.28
2023-05-16T05:02:24.343Z,97535.13
2023-05-16T05:05:30.509Z,97537.44
2023-05-16T05:08:41.591Z,97549.22
2023-05-16T05:11:52.266Z,97546.63
2023-05-16T05:14:59.172Z,97554.16
2023-05-16T05:18:08.127Z,97554.91
2023-05-16T05:21:15.261Z,97547.28
2023-05-16T05:24:26.501Z,97544.44
2023-05-16T05:27:33.242Z,97554.50
2023-05-16T05:30:40.633Z,97543.69
2023-05-16T05:33:48.985Z,97539.31
2023-05-16T05:36:54.904Z,97534.53
2023-05-16T05:40:04.656Z,97540.88
2023-05-16T05:43:10.508Z,97545.31
2023-05-16T05:46:20.088Z,97539.09
2023-05-16T05:49:26.321Z,97538.00
2023-05-16T05:52:33.193Z,97541.31
2023-05-16T05:55:42.503Z,97545.63
2023-05-16T05:58:49.412Z,97561.28
2023-05-16T06:01:55.752Z,97554.47
2023-05-16T06:05:02.382Z,97547.91
2023-05-16T06:08:08.577Z,97549.50
2023-05-16T06:11:17.826Z,97569.00
2023-05-16T06:14:26.267Z,97561.31
2023-05-16T06:17:33.034Z,97561.19
2023-05-16T06:20:45.664Z,97559.03
2023-05-16T06:24:12.758Z,97566.75
2023-05-16T06:27:21.309Z,97563.78
2023-05-16T06:30:28.324Z,97562.97
2023-05-16T06:33:34.361Z,97560.13
2023-05-16T06:36:41.129Z,97570.28
2023-05-16T06:39:48.265Z,97574.41
2023-05-16T06:42:58.900Z,97571.56
2023-05-16T06:46:04.853Z,97557.81
2023-05-16T06:49:12.996Z,97560.50
2023-05-16T06:52:18.883Z,97561.56
2023-05-16T06:55:26.013Z,97558.47
2023-05-16T06:58:40.210Z,97556.00
2023-05-16T07:01:47.148Z,97571.91
2023-05-16T07:04:53.378Z,97570.59
2023-05-16T07:08:01.025Z,97561.88
2023-05-16T07:11:07.144Z,97561.56
2023-05-16T07:14:16.597Z,97573.06
2023-05-16T07:17:22.573Z,97565.34
2023-05-16T07:20:29.438Z,97576.59
2023-05-16T07:23:35.490Z,97576.66
2023-05-16T07:26:42.253Z,97581.22
2023-05-16T07:29:50.741Z,97588.78
2023-05-16T07:32:58.418Z,97587.16
2023-05-16T07:36:16.973Z,97593.84
2023-05-16T07:39:27.337Z,97597.19
2023-05-16T07:42:34.328Z,97601.78
2023-05-16T07:45:46.739Z,97616.03
2023-05-16T07:48:53.242Z,97626.66
2023-05-16T07:52:00.126Z,97635.91
2023-05-16T07:55:06.561Z,97640.69
2023-05-16T07:58:13.701Z,97647.69
2023-05-16T08:01:22.393Z,97636.75
2023-05-16T08:04:29.275Z,97632.22
2023-05-16T08:07:36.012Z,97640.50
2023-05-16T08:10:42.783Z,97628.66
2023-05-16T08:13:48.871Z,97632.47
2023-05-16T08:16:58.275Z,97627.47
2023-05-16T08:20:04.519Z,97640.00
2023-05-16T08:23:11.791Z,97651.50
2023-05-16T08:26:18.077Z,97657.16
2023-05-16T08:29:24.974Z,97652.97
2023-05-16T08:32:33.484Z,97648.59
2023-05-16T08:35:40.375Z,97650.75
2023-05-16T08:38:46.318Z,97648.34
2023-05-16T08:41:53.618Z,97659.84
2023-05-16T08:44:59.693Z,97638.28
2023-05-16T08:48:14.437Z,97623.28
2023-05-16T08:51:24.157Z,97634.00
2023-05-16T08:54:33.477Z,97637.38
2023-05-16T08:57:43.084Z,97635.13
2023-05-16T09:00:51.053Z,97633.75
2023-05-16T09:04:00.580Z,97646.56
2023-05-16T09:07:07.804Z,97647.47
2023-05-16T09:10:16.053Z,97647.31
2023-05-16T09:13:22.809Z,97650.56
2023-05-16T09:16:28.741Z,97651.09
2023-05-16T09:19:49.226Z,97641.03
2023-05-16T09:22:57.856Z,97634.69
2023-05-16T09:26:05.006Z,97627.03
2023-05-16T09:29:20.541Z,97632.66
2023-05-16T09:32:28.359Z,97634.59
2023-05-16T09:35:43.896Z,97643.91
2023-05-16T09:38:55.613Z,97639.94
2023-05-16T09:42:07.282Z,97646.69
2023-05-16T09:45:17.466Z,97646.97
2023-05-16T09:48:28.896Z,97647.44
2023-05-16T09:51:39.581Z,97643.50
2023-05-16T09:54:45.648Z,97641.84
2023-05-16T09:57:53.013Z,97634.72
2023-05-16T10:01:01.078Z,97630.59
2023-05-16T10:04:14.473Z,97625.41
2023-05-16T10:07:25.904Z,97617.78
2023-05-16T10:10:36.591Z,97622.72
2023-05-16T10:13:45.811Z,97629.94
2023-05-16T10:16:55.230Z,97628.13
2023-05-16T10:20:08.379Z,97621.88
2023-05-16T10:23:22.873Z,97621.31
2023-05-16T10:26:32.740Z,97618.53
2023-05-16T10:29:54.064Z,97614.91
2023-05-16T10:33:15.481Z,97612.16
2023-05-16T10:36:23.963Z,97619.69
2023-05-16T10:39:36.258Z,97620.75
2023-05-16T10:42:46.913Z,97619.59
2023-05-16T10:45:59.484Z,97617.00
2023-05-16T10:49:24.101Z,97614.69
2023-05-16T10:52:37.541Z,97620.63
2023-05-16T10:56:03.709Z,97614.81
2023-05-16T10:59:28.850Z,97610.16
2023-05-16T11:02:45.080Z,97614.50
2023-05-16T11:05:55.880Z,97609.94
2023-05-16T11:09:10.614Z,97615.56
2023-05-16T11:12:19.409Z,97605.28
2023-05-16T11:15:30.704Z,97596.91
2023-05-16T11:18:37.073Z,97590.41
2023-05-16T11:22:12.047Z,97587.13
2023-05-16T11:25:17.943Z,97588.44
2023-05-16T11:28:30.460Z,97596.34
2023-05-16T11:31:38.875Z,97599.03
2023-05-16T11:34:46.933Z,97593.59
2023-05-16T11:37:53.079Z,97592.81
2023-05-16T11:41:07.606Z,97586.28
2023-05-16T11:44:18.157Z,97579.91
2023-05-16T11:47:25.081Z,97587.34
2023-05-16T11:50:31.343Z,97595.06
2023-05-16T11:53:38.945Z,97582.09
2023-05-16T11:56:45.165Z,97587.09
2023-05-16T11:59:56.568Z,97579.78
2023-05-16T12:03:08.446Z,97587.09
2023-05-16T12:06:15.265Z,97587.09
2023-05-16T12:09:21.252Z,97587.09
2023-05-16T12:12:28.006Z,97592.97
2023-05-16T12:15:37.507Z,97590.03
2023-05-16T12:18:44.992Z,97583.59
2023-05-16T12:21:53.397Z,97591.91
2023-05-16T12:25:31.092Z,97587.75
2023-05-16T12:28:39.756Z,97582.66
2023-05-16T12:31:49.373Z,97578.22
2023-05-16T12:34:57.308Z,97568.59
2023-05-16T12:38:08.028Z,97568.41
2023-05-16T12:41:13.925Z,97566.03
2023-05-16T12:44:24.995Z,97564.34
2023-05-16T12:47:49.338Z,97556.69
2023-05-16T12:50:56.691Z,97558.75
2023-05-16T12:54:13.759Z,97547.63
2023-05-16T12:57:20.554Z,97554.97
2023-05-16T13:00:27.318Z,97558.75
2023-05-16T13:03:44.890Z,97558.75
2023-05-16T13:10:06.638Z,97547.63
2023-05-16T13:13:17.047Z,97553.63
2023-05-16T13:16:29.385Z,97559.94
2023-05-16T13:19:38.255Z,97549.66
2023-05-16T13:22:48.066Z,97550.09
2023-05-16T13:25:55.737Z,97548.00
2023-05-16T13:29:03.129Z,97532.00
2023-05-16T13:32:11.017Z,97527.34
2023-05-16T13:35:22.061Z,97521.56
2023-05-16T13:38:47.183Z,97530.63
2023-05-16T13:41:57.467Z,97525.22
2023-05-16T13:45:16.577Z,97517.00
2023-05-16T13:48:23.426Z,97510.38
2023-05-16T13:51:32.055Z,97517.56
2023-05-16T13:54:40.008Z,97517.44
2023-05-16T13:57:46.052Z,97524.81
2023-05-16T14:00:53.387Z,97529.09
2023-05-16T14:03:59.895Z,97539.31
2023-05-16T14:07:16.420Z,97539.91
2023-05-16T14:10:25.349Z,97544.94
2023-05-16T14:13:32.276Z,97545.03
2023-05-16T14:16:38.406Z,97545.16
2023-05-16T14:19:45.261Z,97543.88
2023-05-16T14:22:58.271Z,97536.41
2023-05-16T14:26:08.143Z,97549.00
2023-05-16T14:29:13.966Z,97544.56
2023-05-16T14:32:21.318Z,97548.78
2023-05-16T14:35:28.108Z,97559.22
2023-05-16T14:38:37.676Z,97563.44
2023-05-16T14:41:43.720Z,97569.72
2023-05-16T14:44:50.797Z,97582.03
2023-05-16T14:47:56.846Z,97578.34
2023-05-16T14:51:07.813Z,97581.38
2023-05-16T14:54:16.738Z,97583.84
2023-05-16T14:57:23.557Z,97595.09
2023-05-16T15:00:52.115Z,97587.66
2023-05-16T15:04:14.989Z,97596.84
2023-05-16T15:07:36.337Z,97581.56
2023-05-16T15:10:59.818Z,97585.16
2023-05-16T15:14:20.719Z,97589.69
2023-05-16T15:17:33.208Z,97595.44
2023-05-16T15:20:43.120Z,97587.84
2023-05-16T15:23:52.349Z,97593.94
2023-05-16T15:27:08.016Z,97586.41
2023-05-16T15:30:29.155Z,97587.97
2023-05-16T15:33:35.257Z,97584.63
2023-05-16T15:36:42.177Z,97589.75
2023-05-16T15:39:48.098Z,97579.75
2023-05-16T15:42:57.635Z,97573.34
2023-05-16T15:46:03.632Z,97575.72
2023-05-16T15:49:12.571Z,97578.91
2023-05-16T15:52:20.039Z,97580.56
2023-05-16T15:55:29.014Z,97569.53
2023-05-16T15:58:37.939Z,97569.09
2023-05-16T16:01:45.068Z,97572.22
2023-05-16T16:04:52.088Z,97580.16
2023-05-16T16:07:58.890Z,97576.69
2023-05-16T16:11:05.289Z,97579.03
2023-05-16T16:14:14.768Z,97575.78
2023-05-16T16:17:20.650Z,97581.97
2023-05-16T16:20:27.786Z,97589.25
2023-05-16T16:23:35.045Z,97597.78
2023-05-16T16:26:41.817Z,97600.31
2023-05-16T16:30:05.287Z,97591.69
2023-05-16T16:33:31.515Z,97587.59
2023-05-16T16:36:54.358Z,97596.44
2023-05-16T16:40:16.170Z,97595.44
2023-05-16T16:43:37.641Z,97606.97
2023-05-16T16:47:01.354Z,97596.13
2023-05-16T16:50:23.992Z,97596.94
2023-05-16T16:53:51.640Z,97590.41
2023-05-16T16:57:12.905Z,97593.09
2023-05-16T17:00:34.057Z,97610.53
2023-05-16T17:03:57.727Z,97614.09
2023-05-16T17:07:25.172Z,97614.69
2023-05-16T17:10:48.423Z,97614.50
2023-05-16T17:13:59.591Z,97611.22
2023-05-16T17:17:05.577Z,97611.03
2023-05-16T17:20:17.086Z,97617.81
2023-05-16T17:23:23.510Z,97623.97
2023-05-16T17:26:30.425Z,97615.13
2023-05-16T17:29:39.823Z,97612.28
2023-05-16T17:32:49.528Z,97613.72
2023-05-16T17:35:58.406Z,97613.31
2023-05-16T17:39:12.963Z,97611.41
2023-05-16T17:42:19.610Z,97613.50
2023-05-16T17:45:36.334Z,97608.38
2023-05-16T17:48:45.379Z,97608.59
2023-05-16T17:52:05.065Z,97610.47
2023-05-16T17:55:25.725Z,97604.50
2023-05-16T17:58:46.723Z,97611.31
2023-05-16T18:02:10.101Z,97608.78
2023-05-16T18:05:31.781Z,97623.16
2023-05-16T18:09:00.807Z,97632.84
2023-05-16T18:12:21.843Z,97626.31
2023-05-16T18:15:45.599Z,97618.09
2023-05-16T18:19:01.866Z,97633.16
2023-05-16T18:22:10.454Z,97644.25
2023-05-16T18:25:20.086Z,97649.41
2023-05-16T18:28:26.526Z,97640.97
2023-05-16T18:34:38.896Z,97636.25
2023-05-16T18:37:46.121Z,97629.28
2023-05-16T18:40:52.342Z,97637.28
2023-05-16T18:43:59.297Z,97656.00
2023-05-16T18:47:33.872Z,97666.09
2023-05-16T18:50:41.173Z,97660.53
2023-05-16T18:53:47.290Z,97663.22
2023-05-16T18:57:10.451Z,97665.88
2023-05-16T19:00:31.317Z,97663.03
2023-05-16T19:04:45.162Z,97657.69
2023-05-16T19:08:06.706Z,97670.00
2023-05-16T19:11:27.992Z,97671.03
2023-05-16T19:14:48.881Z,97678.03
2023-05-16T19:17:57.754Z,97678.84
2023-05-16T19:21:13.682Z,97664.47
2023-05-16T19:24:21.049Z,97652.53
2023-05-16T19:27:29.191Z,97668.16
2023-05-16T19:30:38.112Z,97666.91
2023-05-16T19:33:47.650Z,97668.56
2023-05-16T19:36:59.237Z,97661.59
2023-05-16T19:40:05.532Z,97655.66
2023-05-16T19:43:13.146Z,97659.97
2023-05-16T19:46:19.058Z,97667.34
2023-05-16T19:49:29.226Z,97675.34
2023-05-16T19:52:39.118Z,97667.34
2023-05-16T19:56:04.365Z,97672.25
2023-05-16T19:59:16.029Z,97664.06
2023-05-16T20:02:28.738Z,97651.75
2023-05-16T20:05:34.776Z,97645.09
2023-05-16T20:08:46.679Z,97639.16
2023-05-16T20:11:54.774Z,97638.81
2023-05-16T20:15:01.834Z,97632.56
2023-05-16T20:18:07.989Z,97642.66
2023-05-16T20:21:16.606Z,97655.63
2023-05-16T20:24:50.281Z,97650.69
2023-05-16T20:28:11.815Z,97652.28
2023-05-16T20:31:33.507Z,97650.66
2023-05-16T20:34:55.224Z,97643.69
2023-05-16T20:38:17.075Z,97645.78
2023-05-16T20:41:40.434Z,97645.97
2023-05-16T20:45:08.405Z,97637.63
2023-05-16T20:48:31.530Z,97631.59
2023-05-16T20:51:56.856Z,97626.47
2023-05-16T20:55:19.464Z,97617.34
2023-05-16T20:58:44.152Z,97621.69
2023-05-16T21:02:06.094Z,97609.31
2023-05-16T21:05:27.353Z,97601.69
2023-05-16T21:08:34.586Z,97599.94
2023-05-16T21:11:40.773Z,97602.38
2023-05-16T21:14:50.507Z,97601.59
2023-05-16T21:17:56.594Z,97590.84
2023-05-16T21:21:03.387Z,97591.31
2023-05-16T21:24:10.997Z,97591.13
2023-05-16T21:27:26.986Z,97589.03
2023-05-16T21:30:35.582Z,97591.66
2023-05-16T21:33:52.484Z,97589.69
2023-05-16T21:36:59.011Z,97591.66
2023-05-16T21:40:25.224Z,97586.13
2023-05-16T21:43:46.117Z,97581.56
2023-05-16T21:47:09.844Z,97584.63
2023-05-16T21:50:38.312Z,97579.13
2023-05-16T21:53:59.359Z,97578.63
2023-05-16T21:57:20.202Z,97587.41
2023-05-16T22:00:28.234Z,97576.28
2023-05-16T22:03:36.981Z,97574.72
2023-05-16T22:06:43.933Z,97583.75
2023-05-16T22:09:53.871Z,97580.03
2023-05-16T22:13:00.604Z,97579.59
2023-05-16T22:16:06.642Z,97592.06
2023-05-16T22:19:30.560Z,97587.13
2023-05-16T22:22:52.488Z,97574.97
2023-05-16T22:26:16.107Z,97589.88
2023-05-16T22:29:38.511Z,97595.38
2023-05-16T22:32:59.477Z,97597.00
2023-05-16T22:36:23.130Z,97603.19
2023-05-16T22:39:44.103Z,97601.56
2023-05-16T22:42:50.813Z,97601.09
2023-05-16T22:45:56.853Z,97604.53
2023-05-16T22:49:03.821Z,97604.50
2023-05-16T22:52:12.528Z,97607.59
2023-05-16T22:55:19.475Z,97597.38
2023-05-16T22:58:25.608Z,97603.75
2023-05-16T23:01:32.781Z,97596.41
2023-05-16T23:04:53.794Z,97587.09
2023-05-16T23:08:17.412Z,97587.13
2023-05-16T23:11:38.307Z,97616.63
2023-05-16T23:15:02.513Z,97625.03
2023-05-16T23:18:23.592Z,97616.16
2023-05-16T23:21:45.033Z,97632.78
2023-05-16T23:25:09.922Z,97639.06
2023-05-16T23:28:30.870Z,97623.56
2023-05-16T23:31:51.769Z,97624.56
2023-05-16T23:35:13.119Z,97625.75
2023-05-16T23:38:34.054Z,97613.56
2023-05-16T23:41:43.517Z,97622.63
2023-05-16T23:44:49.331Z,97635.84
2023-05-16T23:47:56.208Z,97635.63
2023-05-16T23:51:02.357Z,97639.38
2023-05-16T23:54:09.202Z,97641.22
2023-05-16T23:57:17.832Z,97636.09
